createdAt,value
2022-08-27T00:01:44.811Z,4.38
2022-08-27T00:04:11.238Z,4.95
2022-08-27T00:06:37.698Z,3.97
2022-08-27T00:09:05.432Z,5.28
2022-08-27T00:11:32.147Z,4.28
2022-08-27T00:13:58.440Z,4.32
2022-08-27T00:16:25.157Z,4.95
2022-08-27T00:18:53.699Z,4.82
2022-08-27T00:21:20.007Z,4.65
2022-08-27T00:23:46.837Z,4.55
2022-08-27T00:26:13.942Z,5.13
2022-08-27T00:28:40.646Z,5.70
2022-08-27T00:31:07.105Z,5.13
2022-08-27T00:33:34.674Z,4.90
2022-08-27T00:36:01.440Z,5.03
2022-08-27T00:38:27.805Z,5.28
2022-08-27T00:40:55.306Z,6.45
2022-08-27T00:43:25.357Z,7.00
2022-08-27T00:45:54.282Z,7.25
2022-08-27T00:48:21.809Z,9.20
2022-08-27T00:50:50.583Z,9.35
2022-08-27T00:53:18.297Z,8.48
2022-08-27T00:55:47.107Z,8.75
2022-08-27T00:58:18.926Z,8.30
2022-08-27T01:00:46.191Z,9.55
2022-08-27T01:03:12.744Z,8.48
2022-08-27T01:05:39.262Z,9.70
2022-08-27T01:08:11.787Z,11.77
2022-08-27T01:10:39.014Z,11.52
2022-08-27T01:13:09.433Z,12.18
2022-08-27T01:15:35.729Z,12.77
2022-08-27T01:18:04.069Z,10.43
2022-08-27T01:20:35.465Z,11.00
2022-08-27T01:23:09.603Z,11.68
2022-08-27T01:25:35.970Z,11.88
2022-08-27T01:28:03.258Z,11.27
2022-08-27T01:30:29.673Z,10.88
2022-08-27T01:32:56.037Z,13.32
2022-08-27T01:35:23.322Z,13.88
2022-08-27T01:37:52.265Z,14.73
2022-08-27T01:40:19.528Z,14.23
2022-08-27T01:42:48.430Z,16.35
2022-08-27T01:45:19.553Z,13.73
2022-08-27T01:47:46.848Z,17.15
2022-08-27T01:50:20.237Z,15.88
2022-08-27T01:52:46.874Z,17.52
2022-08-27T01:55:14.535Z,15.77
2022-08-27T01:57:41.519Z,17.10
2022-08-27T02:00:10.423Z,17.42
2022-08-27T02:02:37.062Z,17.83
2022-08-27T02:05:04.002Z,18.10
2022-08-27T02:07:30.311Z,17.92
2022-08-27T02:09:56.634Z,18.23
2022-08-27T02:12:23.167Z,17.58
2022-08-27T02:14:49.601Z,20.35
2022-08-27T02:17:16.158Z,19.25
2022-08-27T02:19:42.490Z,20.17
2022-08-27T02:22:08.966Z,21.75
2022-08-27T02:24:35.263Z,19.75
2022-08-27T02:27:02.355Z,17.65
2022-08-27T02:29:28.662Z,19.58
2022-08-27T02:31:55.124Z,22.35
2022-08-27T02:34:21.467Z,19.55
2022-08-27T02:36:47.837Z,21.00
2022-08-27T02:39:14.150Z,20.20
2022-08-27T02:41:40.466Z,21.80
2022-08-27T02:44:10.235Z,22.77
2022-08-27T02:46:37.729Z,21.25
2022-08-27T02:49:04.631Z,21.00
2022-08-27T02:51:30.958Z,21.95
2022-08-27T02:53:57.275Z,21.92
2022-08-27T02:56:23.566Z,23.02
2022-08-27T02:58:49.959Z,21.90
2022-08-27T03:01:16.503Z,21.63
2022-08-27T03:03:43.091Z,21.83
2022-08-27T03:06:09.392Z,22.05
2022-08-27T03:08:50.738Z,23.73
2022-08-27T03:11:18.811Z,20.80
2022-08-27T03:13:45.163Z,22.50
2022-08-27T03:16:11.492Z,21.67
2022-08-27T03:18:37.959Z,20.75
2022-08-27T03:21:04.275Z,21.92
2022-08-27T03:23:34.761Z,23.05
2022-08-27T03:26:02.730Z,23.35
2022-08-27T03:28:30.824Z,22.15
2022-08-27T03:31:00.054Z,24.58
2022-08-27T03:33:27.052Z,22.67
2022-08-27T03:35:53.347Z,25.55
2022-08-27T03:38:19.946Z,23.90
2022-08-27T03:40:47.027Z,23.80
2022-08-27T03:43:13.654Z,22.90
2022-08-27T03:45:52.917Z,23.65
2022-08-27T03:48:29.031Z,21.10
2022-08-27T03:50:55.329Z,22.02
2022-08-27T03:53:21.639Z,22.60
2022-08-27T03:55:48.178Z,22.50
2022-08-27T03:58:14.542Z,22.42
2022-08-27T04:00:41.225Z,21.60
2022-08-27T04:03:07.694Z,20.73
2022-08-27T04:05:34.306Z,22.38
2022-08-27T04:08:00.730Z,19.88
2022-08-27T04:10:27.402Z,22.83
2022-08-27T04:13:01.278Z,20.08
2022-08-27T04:15:27.576Z,21.52
2022-08-27T04:17:53.885Z,21.27
2022-08-27T04:20:36.145Z,20.25
2022-08-27T04:23:02.882Z,19.85
2022-08-27T04:25:29.428Z,19.70
2022-08-27T04:27:55.734Z,19.35
2022-08-27T04:30:22.043Z,18.30
2022-08-27T04:32:48.581Z,19.17
2022-08-27T04:35:14.871Z,18.08
2022-08-27T04:37:41.220Z,19.48
2022-08-27T04:40:07.856Z,17.90
2022-08-27T04:42:34.189Z,18.02
2022-08-27T04:45:00.556Z,17.10
2022-08-27T04:47:26.908Z,16.88
2022-08-27T04:49:53.203Z,17.00
2022-08-27T04:52:19.762Z,15.50
2022-08-27T04:54:46.067Z,17.05
2022-08-27T04:57:12.435Z,17.40
2022-08-27T04:59:38.968Z,15.40
2022-08-27T05:02:06.489Z,16.20
2022-08-27T05:04:34.758Z,16.00
2022-08-27T05:07:01.295Z,15.10
2022-08-27T05:09:27.593Z,17.20
2022-08-27T05:11:55.340Z,16.02
2022-08-27T05:14:22.307Z,13.80
2022-08-27T05:16:48.596Z,14.18
2022-08-27T05:19:15.381Z,13.80
2022-08-27T05:21:47.815Z,12.45
2022-08-27T05:24:14.758Z,9.68
2022-08-27T05:26:41.096Z,11.80
2022-08-27T05:29:07.455Z,9.68
2022-08-27T05:31:34.566Z,8.88
2022-08-27T05:34:01.376Z,9.68
2022-08-27T05:36:32.011Z,9.98
2022-08-27T05:38:59.136Z,10.20
2022-08-27T05:41:33.816Z,10.73
2022-08-27T05:44:01.935Z,11.15
2022-08-27T05:46:29.135Z,11.30
2022-08-27T05:48:56.798Z,10.63
2022-08-27T05:51:25.747Z,11.85
2022-08-27T05:53:55.212Z,9.75
2022-08-27T05:56:22.617Z,10.17
2022-08-27T05:59:08.759Z,10.15
2022-08-27T06:01:39.560Z,9.00
2022-08-27T06:04:06.319Z,9.68
2022-08-27T06:06:36.665Z,8.63
2022-08-27T06:09:04.159Z,8.73
2022-08-27T06:11:30.506Z,8.43
2022-08-27T06:13:57.485Z,8.43
2022-08-27T06:16:23.906Z,9.00
2022-08-27T06:18:50.401Z,8.68
2022-08-27T06:21:21.419Z,8.80
2022-08-27T06:23:50.197Z,9.05
2022-08-27T06:26:17.620Z,8.35
2022-08-27T06:28:44.911Z,9.70
2022-08-27T06:31:13.827Z,9.80
2022-08-27T06:33:40.803Z,10.45
2022-08-27T06:36:09.475Z,9.73
2022-08-27T06:38:36.590Z,9.32
2022-08-27T06:41:04.357Z,9.95
2022-08-27T06:43:30.933Z,9.55
2022-08-27T06:45:57.297Z,9.13
2022-08-27T06:48:24.380Z,10.32
2022-08-27T06:50:50.779Z,9.25
2022-08-27T06:53:17.067Z,8.70
2022-08-27T06:55:44.536Z,8.77
2022-08-27T06:58:11.270Z,8.27
2022-08-27T07:00:37.878Z,8.25
2022-08-27T07:03:05.525Z,9.00
2022-08-27T07:05:32.490Z,10.75
2022-08-27T07:07:59.366Z,9.23
2022-08-27T07:10:26.122Z,9.40
2022-08-27T07:12:52.453Z,8.48
2022-08-27T07:15:18.795Z,8.43
2022-08-27T07:17:48.446Z,8.07
2022-08-27T07:20:15.861Z,8.45
2022-08-27T07:22:42.985Z,7.80
2022-08-27T07:25:12.388Z,7.78
2022-08-27T07:27:39.207Z,7.30
2022-08-27T07:30:06.942Z,7.80
2022-08-27T07:32:33.414Z,8.38
2022-08-27T07:35:00.227Z,8.57
2022-08-27T07:37:29.606Z,8.43
2022-08-27T07:40:01.787Z,7.60
2022-08-27T07:42:47.635Z,6.70
2022-08-27T07:45:13.938Z,9.23
2022-08-27T07:47:40.227Z,7.75
2022-08-27T07:50:06.874Z,7.57
2022-08-27T07:52:34.417Z,8.45
2022-08-27T07:55:01.492Z,6.13
2022-08-27T07:57:27.809Z,6.50
2022-08-27T07:59:54.131Z,5.85
2022-08-27T08:02:20.494Z,5.70
2022-08-27T08:04:47.058Z,4.75
2022-08-27T08:07:13.694Z,6.20
2022-08-27T08:09:40.036Z,5.20
2022-08-27T08:12:07.453Z,5.50
2022-08-27T08:14:33.843Z,4.88
2022-08-27T08:17:01.393Z,5.30
2022-08-27T08:19:28.812Z,4.78
2022-08-27T08:22:02.455Z,5.25
2022-08-27T08:24:31.723Z,4.22
2022-08-27T08:26:57.998Z,5.88
2022-08-27T08:29:25.232Z,4.43
2022-08-27T08:31:51.515Z,6.03
2022-08-27T08:34:18.445Z,4.90
2022-08-27T08:36:46.178Z,5.65
2022-08-27T08:39:20.327Z,5.68
2022-08-27T08:41:50.358Z,5.40
2022-08-27T08:44:20.319Z,6.03
2022-08-27T08:46:53.141Z,5.53
2022-08-27T08:49:31.483Z,5.97
2022-08-27T08:52:02.750Z,6.38
2022-08-27T08:54:31.050Z,5.55
2022-08-27T08:57:06.706Z,6.57
2022-08-27T08:59:32.983Z,5.80
2022-08-27T09:01:59.670Z,4.82
2022-08-27T09:04:26.819Z,4.97
2022-08-27T09:06:56.678Z,4.43
2022-08-27T09:09:23.424Z,5.95
2022-08-27T09:11:52.542Z,5.50
2022-08-27T09:14:51.527Z,5.72
2022-08-27T09:17:20.417Z,5.10
2022-08-27T09:19:46.777Z,6.15
2022-08-27T09:22:21.252Z,4.22
2022-08-27T09:24:47.599Z,4.78
2022-08-27T09:27:15.148Z,4.57
2022-08-27T09:29:49.588Z,4.63
2022-08-27T09:32:16.033Z,5.13
2022-08-27T09:34:43.746Z,5.07
2022-08-27T09:37:22.197Z,4.50
2022-08-27T09:40:13.430Z,3.22
2022-08-27T09:42:53.055Z,4.93
2022-08-27T09:45:23.891Z,4.80
2022-08-27T09:47:51.843Z,3.60
2022-08-27T09:50:20.028Z,4.30
2022-08-27T09:52:57.026Z,3.58
2022-08-27T09:55:46.735Z,5.07
2022-08-27T10:01:36.617Z,3.85
2022-08-27T10:04:10.468Z,4.13
2022-08-27T10:06:37.473Z,3.50
2022-08-27T10:09:10.241Z,3.25
2022-08-27T10:11:40.088Z,4.15
2022-08-27T10:14:13.772Z,3.63
2022-08-27T10:16:55.082Z,3.88
2022-08-27T10:19:40.315Z,3.83
2022-08-27T10:22:22.132Z,4.63
2022-08-27T10:24:57.723Z,3.75
2022-08-27T10:27:29.997Z,3.78
2022-08-27T10:30:01.885Z,3.95
2022-08-27T10:32:43.801Z,3.42
2022-08-27T10:35:16.570Z,4.45
2022-08-27T10:37:55.553Z,6.53
2022-08-27T10:40:30.978Z,3.60
2022-08-27T10:43:15.989Z,3.92
2022-08-27T10:45:42.718Z,5.13
2022-08-27T10:48:24.477Z,5.07
2022-08-27T10:50:50.805Z,4.00
2022-08-27T10:53:26.235Z,4.15
2022-08-27T10:55:59.344Z,4.57
2022-08-27T10:58:25.584Z,4.15
2022-08-27T11:00:58.241Z,4.28
2022-08-27T11:03:33.500Z,4.22
2022-08-27T11:06:03.210Z,4.53
2022-08-27T11:08:39.560Z,3.60
2022-08-27T11:11:35.121Z,3.88
2022-08-27T11:14:01.385Z,5.85
2022-08-27T11:16:32.837Z,3.60
2022-08-27T11:19:17.724Z,3.88
2022-08-27T11:21:46.659Z,3.60
2022-08-27T11:24:21.974Z,2.88
2022-08-27T11:26:50.194Z,2.97
2022-08-27T11:29:24.488Z,4.00
2022-08-27T11:31:56.025Z,4.60
2022-08-27T11:34:22.316Z,3.33
2022-08-27T11:36:58.380Z,3.45
2022-08-27T11:39:30.877Z,2.50
2022-08-27T11:42:15.975Z,4.05
2022-08-27T11:44:44.046Z,3.80
2022-08-27T11:50:31.903Z,3.05
2022-08-27T11:53:02.950Z,2.90
2022-08-27T11:55:36.947Z,3.13
2022-08-27T11:58:05.753Z,3.60
2022-08-27T12:00:33.921Z,2.67
2022-08-27T12:03:29.459Z,3.17
2022-08-27T12:05:55.815Z,3.10
2022-08-27T12:08:22.493Z,3.55
2022-08-27T12:11:15.281Z,4.10
2022-08-27T12:13:54.165Z,4.13
2022-08-27T12:16:20.485Z,3.90
2022-08-27T12:18:49.741Z,4.28
2022-08-27T12:21:16.067Z,3.45
2022-08-27T12:23:46.208Z,4.00
2022-08-27T12:26:27.649Z,5.47
2022-08-27T12:29:17.021Z,3.50
2022-08-27T12:31:44.650Z,3.75
2022-08-27T12:34:15.437Z,3.97
2022-08-27T12:36:48.154Z,3.35
2022-08-27T12:41:45.059Z,2.75
2022-08-27T12:44:13.743Z,3.65
2022-08-27T12:46:51.574Z,3.50
2022-08-27T12:49:38.788Z,3.42
2022-08-27T12:52:14.076Z,5.03
2022-08-27T12:54:51.329Z,3.55
2022-08-27T12:57:23.175Z,3.75
2022-08-27T13:00:28.189Z,4.05
2022-08-27T13:03:01.203Z,3.88
2022-08-27T13:05:35.582Z,3.65
2022-08-27T13:08:02.064Z,4.00
2022-08-27T13:10:29.902Z,4.20
2022-08-27T13:13:09.445Z,5.07
2022-08-27T13:15:36.086Z,3.33
2022-08-27T13:18:07.551Z,4.38
2022-08-27T13:20:36.431Z,4.78
2022-08-27T13:23:02.837Z,4.53
2022-08-27T13:25:34.671Z,3.85
2022-08-27T13:28:07.852Z,5.97
2022-08-27T13:30:39.656Z,4.78
2022-08-27T13:33:07.398Z,4.70
2022-08-27T13:35:34.405Z,6.28
2022-08-27T13:38:01.987Z,4.57
2022-08-27T13:40:30.774Z,5.25
2022-08-27T13:43:05.002Z,5.93
2022-08-27T13:45:36.143Z,4.47
2022-08-27T13:48:02.711Z,5.13
2022-08-27T13:50:30.343Z,4.40
2022-08-27T13:53:22.986Z,4.82
2022-08-27T13:55:50.426Z,3.80
2022-08-27T13:58:26.973Z,5.75
2022-08-27T14:00:53.573Z,3.97
2022-08-27T14:03:24.640Z,4.47
2022-08-27T14:05:51.751Z,4.53
2022-08-27T14:08:19.196Z,4.22
2022-08-27T14:10:59.470Z,4.38
2022-08-27T14:13:26.071Z,4.22
2022-08-27T14:15:54.301Z,4.70
2022-08-27T14:18:32.371Z,4.28
2022-08-27T14:21:03.843Z,5.68
2022-08-27T14:23:31.407Z,4.55
2022-08-27T14:25:58.634Z,4.82
2022-08-27T14:28:25.047Z,5.18
2022-08-27T14:30:53.684Z,4.68
2022-08-27T14:33:20.144Z,4.70
2022-08-27T14:35:47.573Z,4.93
2022-08-27T14:38:15.347Z,6.30
2022-08-27T14:40:42.921Z,5.03
2022-08-27T14:43:09.508Z,4.32
2022-08-27T14:45:37.530Z,4.93
2022-08-27T14:48:18.173Z,4.60
2022-08-27T14:50:45.162Z,4.95
2022-08-27T14:53:11.777Z,4.75
2022-08-27T14:55:38.091Z,4.32
2022-08-27T14:58:04.597Z,4.40
2022-08-27T15:00:31.071Z,6.05
2022-08-27T15:02:57.937Z,3.90
2022-08-27T15:05:25.281Z,3.90
2022-08-27T15:07:53.807Z,4.13
2022-08-27T15:10:20.607Z,3.28
2022-08-27T15:12:46.955Z,5.43
2022-08-27T15:15:14.494Z,4.25
2022-08-27T15:17:41.026Z,5.13
2022-08-27T15:20:09.058Z,5.13
2022-08-27T15:22:37.751Z,4.55
2022-08-27T15:25:07.488Z,4.13
2022-08-27T15:27:38.190Z,4.38
2022-08-27T15:30:06.317Z,4.45
2022-08-27T15:32:34.305Z,3.97
2022-08-27T15:35:01.553Z,4.22
2022-08-27T15:37:28.389Z,4.28
2022-08-27T15:39:54.760Z,4.45
2022-08-27T15:42:21.196Z,3.22
2022-08-27T15:44:50.368Z,3.17
2022-08-27T15:47:19.590Z,4.25
2022-08-27T15:49:46.418Z,3.58
2022-08-27T15:52:16.095Z,4.45
2022-08-27T15:54:43.261Z,4.22
2022-08-27T15:57:10.270Z,3.53
2022-08-27T15:59:37.309Z,4.22
2022-08-27T16:02:04.015Z,4.75
2022-08-27T16:04:30.427Z,4.13
2022-08-27T16:06:56.811Z,3.60
2022-08-27T16:09:23.189Z,3.47
2022-08-27T16:11:49.653Z,4.03
2022-08-27T16:14:16.265Z,3.88
2022-08-27T16:16:44.958Z,3.47
2022-08-27T16:19:16.056Z,3.10
2022-08-27T16:21:43.042Z,2.97
2022-08-27T16:24:09.576Z,4.53
2022-08-27T16:26:38.031Z,4.10
2022-08-27T16:29:05.320Z,3.00
2022-08-27T16:31:32.917Z,3.65
2022-08-27T16:33:59.818Z,2.97
2022-08-27T16:36:26.150Z,2.83
2022-08-27T16:38:52.763Z,2.63
2022-08-27T16:41:19.557Z,4.35
2022-08-27T16:43:48.655Z,3.13
2022-08-27T16:46:15.224Z,2.97
2022-08-27T16:49:01.523Z,1.92
2022-08-27T16:51:35.266Z,2.65
2022-08-27T16:54:05.701Z,2.38
2022-08-27T16:56:36.840Z,2.80
2022-08-27T16:59:04.365Z,2.38
2022-08-27T17:01:31.424Z,2.92
2022-08-27T17:04:09.621Z,3.15
2022-08-27T17:06:39.816Z,1.73
2022-08-27T17:09:06.871Z,2.63
2022-08-27T17:11:34.854Z,1.67
2022-08-27T17:14:04.775Z,2.50
2022-08-27T17:16:31.951Z,2.25
2022-08-27T17:18:59.087Z,3.90
2022-08-27T17:21:29.676Z,2.75
2022-08-27T17:23:59.081Z,2.25
2022-08-27T17:26:25.515Z,2.05
2022-08-27T17:28:52.253Z,2.55
2022-08-27T17:31:27.948Z,1.70
2022-08-27T17:33:56.098Z,2.53
2022-08-27T17:36:24.923Z,2.40
2022-08-27T17:38:53.848Z,1.70
2022-08-27T17:41:23.749Z,2.92
2022-08-27T17:43:50.108Z,1.42
2022-08-27T17:46:16.582Z,2.78
2022-08-27T17:48:42.998Z,2.20
2022-08-27T17:51:10.205Z,3.50
2022-08-27T17:53:38.326Z,2.47
2022-08-27T17:56:04.772Z,4.25
2022-08-27T17:58:31.056Z,2.85
2022-08-27T18:00:58.213Z,3.08
2022-08-27T18:03:24.548Z,2.65
2022-08-27T18:05:51.176Z,2.13
2022-08-27T18:08:17.494Z,2.20
2022-08-27T18:10:46.839Z,2.88
2022-08-27T18:13:14.842Z,1.80
2022-08-27T18:15:42.199Z,2.42
2022-08-27T18:18:09.804Z,2.42
2022-08-27T18:20:36.691Z,1.80
2022-08-27T18:23:07.826Z,1.77
2022-08-27T18:25:36.298Z,1.63
2022-08-27T18:28:05.855Z,2.05
2022-08-27T18:30:32.427Z,1.92
2022-08-27T18:32:59.969Z,2.30
2022-08-27T18:35:27.800Z,1.83
2022-08-27T18:37:54.539Z,1.33
2022-08-27T18:40:21.920Z,1.75
2022-08-27T18:42:48.959Z,1.65
2022-08-27T18:45:16.677Z,2.08
2022-08-27T18:47:43.131Z,2.13
2022-08-27T18:50:10.367Z,1.60
2022-08-27T18:52:44.841Z,2.00
2022-08-27T18:55:12.711Z,2.53
2022-08-27T18:57:39.462Z,1.63
2022-08-27T19:00:07.018Z,3.63
2022-08-27T19:02:33.592Z,1.60
2022-08-27T19:05:00.001Z,1.35
2022-08-27T19:07:29.150Z,1.98
2022-08-27T19:09:56.088Z,1.98
2022-08-27T19:12:22.898Z,3.22
2022-08-27T19:14:50.499Z,1.55
2022-08-27T19:17:22.935Z,2.25
2022-08-27T19:19:51.190Z,2.33
2022-08-27T19:22:17.638Z,1.98
2022-08-27T19:24:45.063Z,2.95
2022-08-27T19:27:11.777Z,1.67
2022-08-27T19:29:38.202Z,2.78
2022-08-27T19:32:04.646Z,1.88
2022-08-27T19:34:31.041Z,3.38
2022-08-27T19:36:58.593Z,1.83
2022-08-27T19:39:25.014Z,2.40
2022-08-27T19:41:51.344Z,2.28
2022-08-27T19:44:17.665Z,2.42
2022-08-27T19:46:44.060Z,2.33
2022-08-27T19:49:10.389Z,2.83
2022-08-27T19:51:36.821Z,2.35
2022-08-27T19:54:03.181Z,2.15
2022-08-27T19:56:32.415Z,3.13
2022-08-27T19:59:08.721Z,3.80
2022-08-27T20:01:42.857Z,1.90
2022-08-27T20:04:12.906Z,2.38
2022-08-27T20:06:39.685Z,1.88
2022-08-27T20:09:08.373Z,2.38
2022-08-27T20:11:34.695Z,2.42
2022-08-27T20:14:01.295Z,1.90
2022-08-27T20:16:27.877Z,2.15
2022-08-27T20:18:56.395Z,2.05
2022-08-27T20:21:26.376Z,1.85
2022-08-27T20:23:52.666Z,1.63
2022-08-27T20:26:19.222Z,1.90
2022-08-27T20:28:46.059Z,1.67
2022-08-27T20:31:12.867Z,1.42
2022-08-27T20:33:41.571Z,2.08
2022-08-27T20:36:08.622Z,2.42
2022-08-27T20:38:34.947Z,2.13
2022-08-27T20:41:01.303Z,2.58
2022-08-27T20:43:28.467Z,2.03
2022-08-27T20:45:54.843Z,2.92
2022-08-27T20:48:21.172Z,2.20
2022-08-27T20:50:47.704Z,1.60
2022-08-27T20:53:14.123Z,1.63
2022-08-27T20:55:41.009Z,2.20
2022-08-27T20:58:25.726Z,2.45
2022-08-27T21:00:53.295Z,1.90
2022-08-27T21:03:20.215Z,2.13
2022-08-27T21:05:48.462Z,1.25
2022-08-27T21:08:16.235Z,3.15
2022-08-27T21:10:46.843Z,1.85
2022-08-27T21:13:13.518Z,1.80
2022-08-27T21:15:39.883Z,2.58
2022-08-27T21:18:06.515Z,1.92
2022-08-27T21:20:33.396Z,3.47
2022-08-27T21:22:59.836Z,2.45
2022-08-27T21:25:26.920Z,1.92
2022-08-27T21:27:53.916Z,2.47
2022-08-27T21:30:21.418Z,1.75
2022-08-27T21:32:49.857Z,1.42
2022-08-27T21:35:16.344Z,2.17
2022-08-27T21:37:43.687Z,2.10
2022-08-27T21:40:10.309Z,2.30
2022-08-27T21:42:36.718Z,1.67
2022-08-27T21:45:03.367Z,2.13
2022-08-27T21:47:30.551Z,3.22
2022-08-27T21:49:56.858Z,1.40
2022-08-27T21:52:23.817Z,2.17
2022-08-27T21:54:50.108Z,2.65
2022-08-27T21:57:16.625Z,2.88
2022-08-27T21:59:45.838Z,1.38
2022-08-27T22:02:35.839Z,1.20
2022-08-27T22:04:59.218Z,1.85
2022-08-27T22:07:25.587Z,2.63
2022-08-27T22:09:52.142Z,1.95
2022-08-27T22:12:18.847Z,1.77
2022-08-27T22:14:45.174Z,1.80
2022-08-27T22:17:15.583Z,1.67
2022-08-27T22:19:42.109Z,1.60
2022-08-27T22:22:08.500Z,2.50
2022-08-27T22:24:34.819Z,2.00
2022-08-27T22:27:01.126Z,1.75
2022-08-27T22:29:27.447Z,1.60
2022-08-27T22:31:57.074Z,1.38
2022-08-27T22:35:05.790Z,1.38
2022-08-27T22:37:30.329Z,2.13
2022-08-27T22:39:56.855Z,1.95
2022-08-27T22:42:24.276Z,1.83
2022-08-27T22:44:54.583Z,2.15
2022-08-27T22:47:20.903Z,3.03
2022-08-27T22:49:47.239Z,1.80
2022-08-27T22:52:28.060Z,1.15
2022-08-27T22:54:55.076Z,1.40
2022-08-27T22:57:21.522Z,1.40
2022-08-27T22:59:47.877Z,1.00
2022-08-27T23:02:14.206Z,2.40
2022-08-27T23:04:54.486Z,1.35
2022-08-27T23:07:21.588Z,1.45
2022-08-27T23:09:47.907Z,0.95
2022-08-27T23:12:15.221Z,0.65
2022-08-27T23:14:44.964Z,1.40
2022-08-27T23:17:11.607Z,1.27
2022-08-27T23:19:37.898Z,1.65
2022-08-27T23:22:07.359Z,0.77
2022-08-27T23:24:33.934Z,1.02
2022-08-27T23:27:18.805Z,1.23
2022-08-27T23:29:45.609Z,1.23
2022-08-27T23:32:11.954Z,1.35
2022-08-27T23:34:38.287Z,2.13
2022-08-27T23:37:04.669Z,3.05
2022-08-27T23:39:30.979Z,1.10
2022-08-27T23:41:57.289Z,1.25
2022-08-27T23:44:24.012Z,1.75
2022-08-27T23:46:50.613Z,2.03
2022-08-27T23:49:17.077Z,1.48
2022-08-27T23:51:43.464Z,1.70
2022-08-27T23:54:09.807Z,2.20
2022-08-27T23:56:36.315Z,1.48
2022-08-27T23:59:03.092Z,1.40
